FMMS

Sainte Marie Airport

Airport
ICAO code
FMMS
IATA Code
SMS
Summary
ICAO Region
AFI
ICAO Territory
Location

Raoraha, Analanjirofo Region

Serving
Sainte Marie
Elevation
7 ft
Coordinates
17° 5' 38" S , 49° 48' 57" E
KCC
Metar
FMMS 221500Z 16002KT 9999 FEW020 BKN250 29/24 Q1010

Sainte Marie Airport is an airport serving Sainte Marie, an island in the Analanjirofo Region of Madagascar.

Climatology

Tropical rainforest climate (Köppen climate classification Af)

Runways

Designator Length Width Surface Rops
1/19 1052 30 ASP No/No

Airport map

Aerial View

SKYbrary Partners:

Safety knowledge contributed by: